Time;durP1;ratioP1;P1;durP2;ratioP2;P2;SDS_P1;SDS_P2;PMS_P1;PMS_P2;Temp;Humidity;BMP_temperature;BMP_pressure;BME280_temperature;BME280_humidity;BME280_pressure;Samples;Min_cycle;Max_cycle;Signal;HPM_P1;HPM_P2
2022/11/01 00:00:01;;;;;;;13.17;10.70;;;;;;;;;;5018953;28;20213;-81
2022/11/01 00:03:06;;;;;;;17.93;10.73;;;;;;;;;;5034212;28;20652;-81
2022/11/01 00:06:10;;;;;;;22.63;11.70;;;;;;;;;;5034512;28;20173;-81
2022/11/01 00:09:15;;;;;;;21.80;10.77;;;;;;;;;;5036974;28;20178;-82
2022/11/01 00:12:19;;;;;;;30.73;11.27;;;;;;;;;;5019956;28;20213;-81
2022/11/01 00:15:24;;;;;;;15.47;9.17;;;;;;;;;;5022399;28;20204;-81
2022/11/01 00:18:28;;;;;;;31.60;12.60;;;;;;;;;;5024312;28;20181;-81
2022/11/01 00:21:32;;;;;;;17.50;10.77;;;;;;;;;;5023266;28;20229;-81
2022/11/01 00:24:36;;;;;;;18.57;10.50;;;;;;;;;;5030539;28;20215;-81
2022/11/01 00:27:41;;;;;;;10.80;9.70;;;;;;;;;;5030553;28;20187;-81
2022/11/01 00:30:45;;;;;;;42.17;11.63;;;;;;;;;;5029902;28;20213;-81
2022/11/01 00:33:49;;;;;;;24.83;9.93;;;;;;;;;;5020133;28;20188;-81
2022/11/01 00:36:53;;;;;;;26.40;10.07;;;;;;;;;;5034085;28;20173;-81
2022/11/01 00:39:57;;;;;;;14.63;9.37;;;;;;;;;;5023518;28;20188;-81
2022/11/01 00:43:02;;;;;;;12.33;9.10;;;;;;;;;;5034362;28;20186;-81
2022/11/01 00:46:07;;;;;;;11.80;8.80;;;;;;;;;;5022156;28;20194;-81
2022/11/01 00:49:11;;;;;;;30.53;9.37;;;;;;;;;;4999260;28;20621;-82
2022/11/01 00:52:15;;;;;;;21.60;8.67;;;;;;;;;;5010420;28;20209;-81
2022/11/01 00:55:19;;;;;;;12.50;8.43;;;;;;;;;;5013438;28;20205;-81
2022/11/01 00:58:23;;;;;;;8.93;7.50;;;;;;;;;;5013472;28;20205;-82
2022/11/01 01:01:28;;;;;;;10.13;8.10;;;;;;;;;;5028218;28;20695;-81
2022/11/01 01:04:32;;;;;;;16.83;8.50;;;;;;;;;;5007215;28;20181;-81
2022/11/01 01:07:37;;;;;;;7.80;7.10;;;;;;;;;;5028387;28;20181;-81
2022/11/01 01:10:41;;;;;;;8.20;7.40;;;;;;;;;;5027708;28;20209;-81
2022/11/01 01:13:45;;;;;;;9.33;7.93;;;;;;;;;;5026445;28;20181;-81
2022/11/01 01:16:50;;;;;;;7.60;6.80;;;;;;;;;;5014108;28;20193;-81
2022/11/01 01:19:54;;;;;;;7.60;6.63;;;;;;;;;;5014588;28;20200;-81
2022/11/01 01:22:58;;;;;;;8.93;7.07;;;;;;;;;;5025761;28;20201;-81
2022/11/01 01:26:10;;;;;;;8.83;7.03;;;;;;;;;;5026442;28;20182;-81
2022/11/01 01:29:17;;;;;;;7.77;6.87;;;;;;;;;;5014134;28;20191;-81
2022/11/01 01:32:23;;;;;;;7.13;6.47;;;;;;;;;;5002730;28;20213;-81
2022/11/01 01:35:27;;;;;;;50.27;8.03;;;;;;;;;;5025052;28;20182;-80
2022/11/01 01:38:32;;;;;;;25.00;6.20;;;;;;;;;;5020407;28;20173;-81
2022/11/01 01:41:54;;;;;;;19.47;6.93;;;;;;;;;;5021893;28;20699;-81
2022/11/01 01:44:59;;;;;;;25.10;6.30;;;;;;;;;;5032815;28;20165;-81
2022/11/01 01:48:19;;;;;;;33.50;6.53;;;;;;;;;;5027970;28;20197;-81
2022/11/01 01:51:26;;;;;;;6.97;5.83;;;;;;;;;;5012318;28;20209;-81
2022/11/01 01:54:31;;;;;;;30.33;7.13;;;;;;;;;;5012763;28;20178;-81
2022/11/01 01:57:36;;;;;;;7.53;6.37;;;;;;;;;;5025784;28;20636;-79
2022/11/01 02:00:42;;;;;;;13.33;7.63;;;;;;;;;;5010382;28;20233;-79
2022/11/01 02:03:47;;;;;;;65.20;7.97;;;;;;;;;;4969561;28;20309;-80
2022/11/01 02:06:51;;;;;;;7.77;7.07;;;;;;;;;;4992113;28;20629;-80
2022/11/01 02:09:56;;;;;;;27.00;8.20;;;;;;;;;;4981396;28;20178;-80
2022/11/01 02:13:00;;;;;;;51.97;8.53;;;;;;;;;;5008877;28;20201;-79
2022/11/01 02:16:37;;;;;;;11.07;8.20;;;;;;;;;;4979626;28;20186;-80
2022/11/01 02:20:19;;;;;;;16.23;8.10;;;;;;;;;;4975679;28;20217;-79
2022/11/01 02:24:00;;;;;;;93.10;9.63;;;;;;;;;;4979143;28;20182;-78
2022/11/01 02:27:13;;;;;;;9.40;8.20;;;;;;;;;;4969164;28;20186;-79
2022/11/01 02:30:21;;;;;;;40.57;8.93;;;;;;;;;;4990892;28;20553;-79
2022/11/01 02:33:28;;;;;;;40.27;9.63;;;;;;;;;;4979747;28;20179;-79
2022/11/01 02:36:39;;;;;;;32.73;9.03;;;;;;;;;;4991108;28;20194;-78
2022/11/01 02:39:51;;;;;;;41.37;7.93;;;;;;;;;;4968643;28;20201;-79
2022/11/01 02:43:01;;;;;;;8.73;7.93;;;;;;;;;;5003165;28;20167;-80
2022/11/01 02:49:42;;;;;;;47.07;8.77;;;;;;;;;;5010378;28;20178;-80
2022/11/01 02:52:47;;;;;;;66.37;9.10;;;;;;;;;;5021378;28;20190;-79
2022/11/01 02:55:52;;;;;;;9.30;7.77;;;;;;;;;;4987576;28;20181;-80
2022/11/01 02:58:57;;;;;;;25.93;8.53;;;;;;;;;;4999632;28;20177;-80
2022/11/01 03:02:07;;;;;;;11.47;7.60;;;;;;;;;;4998902;28;20225;-80
2022/11/01 03:05:18;;;;;;;57.93;8.70;;;;;;;;;;4999963;28;20181;-80
2022/11/01 03:08:30;;;;;;;157.40;10.53;;;;;;;;;;5022366;28;20178;-78
2022/11/01 03:11:39;;;;;;;24.57;6.57;;;;;;;;;;5010798;28;20230;-80
2022/11/01 03:15:19;;;;;;;8.30;6.90;;;;;;;;;;5010076;28;20173;-80
2022/11/01 03:18:35;;;;;;;7.50;6.63;;;;;;;;;;4986745;28;20178;-79
2022/11/01 03:21:47;;;;;;;46.60;6.33;;;;;;;;;;5002703;28;20284;-80
2022/11/01 03:25:02;;;;;;;77.27;7.27;;;;;;;;;;5002704;28;20186;-80
2022/11/01 03:28:21;;;;;;;29.33;6.50;;;;;;;;;;5002174;28;20198;-79
2022/11/01 03:31:31;;;;;;;15.27;5.80;;;;;;;;;;5007137;28;20226;-79
2022/11/01 03:34:38;;;;;;;41.17;5.83;;;;;;;;;;4991593;28;20201;-79
2022/11/01 03:37:44;;;;;;;75.27;7.23;;;;;;;;;;5013044;28;20181;-80
2022/11/01 03:40:54;;;;;;;44.47;5.80;;;;;;;;;;5025235;28;20221;-79
2022/11/01 03:43:59;;;;;;;42.07;5.93;;;;;;;;;;5024859;28;20190;-80
2022/11/01 03:47:04;;;;;;;23.73;6.57;;;;;;;;;;5002701;28;20178;-80
2022/11/01 03:50:15;;;;;;;21.07;5.63;;;;;;;;;;5012993;28;20182;-80
2022/11/01 03:53:19;;;;;;;90.13;8.03;;;;;;;;;;5003012;28;20201;-79
2022/11/01 03:56:23;;;;;;;6.10;5.50;;;;;;;;;;5013518;28;20178;-79
2022/11/01 03:59:27;;;;;;;18.20;5.63;;;;;;;;;;5013392;28;20185;-79
2022/11/01 04:02:32;;;;;;;9.33;5.17;;;;;;;;;;5002056;28;20217;-79
2022/11/01 04:05:38;;;;;;;14.43;6.17;;;;;;;;;;5013525;28;20190;-80
2022/11/01 04:08:42;;;;;;;12.83;5.67;;;;;;;;;;5001686;28;20182;-80
2022/11/01 04:11:47;;;;;;;5.70;5.13;;;;;;;;;;5002864;28;20209;-80
2022/11/01 04:21:39;;;;;;;6.40;5.70;;;;;;;;;;5013062;28;20224;-80
2022/11/01 04:24:43;;;;;;;5.33;4.83;;;;;;;;;;5023983;28;20190;-80
2022/11/01 04:27:47;;;;;;;8.60;5.07;;;;;;;;;;5013546;28;20181;-80
2022/11/01 04:30:51;;;;;;;9.37;5.33;;;;;;;;;;5014544;28;20221;-79
2022/11/01 04:33:57;;;;;;;5.27;4.87;;;;;;;;;;5003117;28;20185;-80
2022/11/01 04:37:01;;;;;;;4.93;4.53;;;;;;;;;;5014798;28;20181;-80
2022/11/01 04:40:06;;;;;;;4.80;4.30;;;;;;;;;;5026325;28;20197;-80
2022/11/01 04:43:11;;;;;;;5.30;4.70;;;;;;;;;;5024502;28;20217;-78
2022/11/01 04:46:16;;;;;;;8.03;4.87;;;;;;;;;;5002470;28;20186;-79
2022/11/01 04:49:23;;;;;;;5.30;4.77;;;;;;;;;;5025622;28;20625;-80
2022/11/01 04:52:28;;;;;;;5.23;4.73;;;;;;;;;;5026017;28;20221;-80
2022/11/01 04:55:32;;;;;;;5.67;4.53;;;;;;;;;;5002991;28;20178;-80
2022/11/01 04:58:37;;;;;;;6.00;4.60;;;;;;;;;;5013880;28;20178;-78
2022/11/01 05:01:41;;;;;;;4.87;4.43;;;;;;;;;;5013555;28;20217;-79
2022/11/01 05:04:45;;;;;;;6.37;4.80;;;;;;;;;;5004785;28;20671;-78
2022/11/01 05:07:50;;;;;;;4.60;4.20;;;;;;;;;;5013696;28;20178;-79
2022/11/01 05:10:55;;;;;;;4.97;4.40;;;;;;;;;;5013681;28;20217;-79
2022/11/01 05:13:59;;;;;;;4.80;4.40;;;;;;;;;;5002366;28;20173;-80
2022/11/01 05:17:03;;;;;;;5.80;4.03;;;;;;;;;;5026124;28;20201;-78
2022/11/01 05:25:21;;;;;;;4.87;4.10;;;;;;;;;;5032639;23;20652;-81
2022/11/01 05:28:25;;;;;;;5.33;4.83;;;;;;;;;;5005211;28;20182;-81
2022/11/01 05:31:30;;;;;;;5.20;4.67;;;;;;;;;;5017685;28;20205;-81
2022/11/01 05:34:34;;;;;;;6.87;5.03;;;;;;;;;;4995183;28;20177;-81
2022/11/01 05:37:38;;;;;;;5.53;4.60;;;;;;;;;;4983663;28;20659;-81
2022/11/01 05:40:42;;;;;;;10.30;4.73;;;;;;;;;;5006328;28;20728;-81
2022/11/01 05:43:46;;;;;;;5.13;4.63;;;;;;;;;;4992824;28;20201;-81
2022/11/01 05:46:50;;;;;;;5.10;4.60;;;;;;;;;;4993354;28;20213;-85
2022/11/01 05:49:54;;;;;;;5.50;5.00;;;;;;;;;;4980735;28;20182;-85
2022/11/01 05:53:08;;;;;;;6.17;5.00;;;;;;;;;;5004213;28;20178;-85
2022/11/01 05:56:13;;;;;;;5.00;4.60;;;;;;;;;;4982685;28;20186;-85
2022/11/01 05:59:17;;;;;;;10.77;5.87;;;;;;;;;;4981834;28;20197;-85
2022/11/01 06:02:21;;;;;;;8.07;5.50;;;;;;;;;;4991705;28;20220;-85
2022/11/01 06:05:26;;;;;;;5.67;5.10;;;;;;;;;;4980615;28;20217;-85
2022/11/01 06:08:30;;;;;;;4.80;4.37;;;;;;;;;;4981492;28;20177;-85
2022/11/01 06:11:35;;;;;;;6.23;4.30;;;;;;;;;;4981441;28;20209;-82
2022/11/01 06:14:38;;;;;;;5.00;4.50;;;;;;;;;;5002790;28;20177;-85
2022/11/01 06:17:43;;;;;;;5.03;4.53;;;;;;;;;;4993369;28;20186;-85
2022/11/01 06:20:47;;;;;;;4.87;4.40;;;;;;;;;;4983379;28;20217;-85
2022/11/01 06:23:51;;;;;;;4.70;4.30;;;;;;;;;;4983523;28;20193;-85
2022/11/01 06:26:55;;;;;;;5.30;4.80;;;;;;;;;;4972783;28;20190;-85
2022/11/01 06:29:59;;;;;;;7.37;5.80;;;;;;;;;;4973463;28;20541;-85
2022/11/01 06:33:05;;;;;;;8.77;6.10;;;;;;;;;;4974653;28;20182;-85
2022/11/01 06:36:10;;;;;;;9.40;6.97;;;;;;;;;;4983874;28;20186;-85
2022/11/01 06:39:16;;;;;;;11.10;6.87;;;;;;;;;;4973255;28;20637;-85
2022/11/01 06:42:20;;;;;;;8.00;5.93;;;;;;;;;;4996412;28;20550;-84
2022/11/01 06:45:24;;;;;;;6.57;5.80;;;;;;;;;;4985418;28;20182;-85
2022/11/01 06:48:28;;;;;;;6.70;5.57;;;;;;;;;;4987045;28;20174;-84
2022/11/01 06:51:32;;;;;;;8.63;6.07;;;;;;;;;;4998926;28;20275;-78
2022/11/01 06:54:37;;;;;;;6.40;5.80;;;;;;;;;;4975421;28;20522;-78
2022/11/01 06:57:41;;;;;;;13.03;8.47;;;;;;;;;;5002108;28;20190;-78
2022/11/01 07:00:45;;;;;;;10.67;9.20;;;;;;;;;;4985517;28;20209;-76
2022/11/01 07:03:50;;;;;;;11.10;8.73;;;;;;;;;;4974117;28;20201;-77
2022/11/01 07:06:55;;;;;;;13.90;8.90;;;;;;;;;;4985372;28;20179;-77
2022/11/01 07:09:59;;;;;;;9.10;8.07;;;;;;;;;;4997252;28;20187;-77
2022/11/01 07:13:05;;;;;;;10.50;8.13;;;;;;;;;;4996364;28;20657;-77
2022/11/01 07:16:09;;;;;;;10.33;7.90;;;;;;;;;;4996048;28;20182;-76
2022/11/01 07:19:13;;;;;;;10.37;7.40;;;;;;;;;;4984912;28;20187;-77
2022/11/01 07:22:17;;;;;;;8.20;6.80;;;;;;;;;;4995913;28;20561;-77
2022/11/01 07:25:21;;;;;;;8.07;7.23;;;;;;;;;;4984630;28;20206;-77
2022/11/01 07:28:26;;;;;;;9.43;8.40;;;;;;;;;;4997065;28;20178;-77
2022/11/01 07:31:32;;;;;;;12.37;9.57;;;;;;;;;;4996313;28;20221;-77
2022/11/01 07:34:36;;;;;;;11.87;10.27;;;;;;;;;;4984642;28;20182;-76
2022/11/01 07:37:40;;;;;;;13.00;10.60;;;;;;;;;;4985031;28;20182;-77
2022/11/01 07:40:48;;;;;;;11.93;9.63;;;;;;;;;;4984609;28;20218;-76
2022/11/01 07:43:52;;;;;;;14.10;9.23;;;;;;;;;;4997101;28;20211;-78
2022/11/01 07:46:56;;;;;;;13.30;9.20;;;;;;;;;;4985516;28;20194;-78
2022/11/01 07:50:00;;;;;;;14.63;9.43;;;;;;;;;;4998248;28;20197;-77
2022/11/01 07:53:13;;;;;;;10.20;8.13;;;;;;;;;;4986255;28;20245;-78
2022/11/01 07:56:17;;;;;;;11.67;8.20;;;;;;;;;;4985297;28;20662;-77
2022/11/01 07:59:21;;;;;;;10.53;8.87;;;;;;;;;;4996394;28;20182;-77
2022/11/01 08:02:26;;;;;;;15.17;9.47;;;;;;;;;;4996474;28;20265;-77
2022/11/01 08:05:30;;;;;;;12.93;9.80;;;;;;;;;;4996302;28;20198;-77
2022/11/01 08:08:34;;;;;;;11.73;9.03;;;;;;;;;;4995431;28;20186;-76
2022/11/01 08:11:38;;;;;;;15.83;8.60;;;;;;;;;;4972924;28;20214;-76
2022/11/01 08:14:42;;;;;;;12.70;7.83;;;;;;;;;;4995026;28;20202;-76
2022/11/01 08:17:46;;;;;;;11.53;8.57;;;;;;;;;;4984100;28;20193;-77
2022/11/01 08:20:51;;;;;;;12.30;7.77;;;;;;;;;;4984013;28;20618;-77
2022/11/01 08:23:55;;;;;;;11.70;7.30;;;;;;;;;;4994483;28;20230;-77
2022/11/01 08:27:01;;;;;;;12.47;7.37;;;;;;;;;;4984085;28;20190;-77
2022/11/01 08:30:06;;;;;;;14.80;8.00;;;;;;;;;;5004313;28;20205;-77
2022/11/01 08:33:10;;;;;;;13.47;7.10;;;;;;;;;;5008512;28;20201;-77
2022/11/01 08:36:16;;;;;;;11.57;7.80;;;;;;;;;;4980619;28;20205;-77
2022/11/01 08:39:20;;;;;;;19.50;7.77;;;;;;;;;;4991726;28;20177;-77
2022/11/01 08:42:24;;;;;;;9.90;7.03;;;;;;;;;;5002791;28;20225;-76
2022/11/01 08:45:28;;;;;;;12.80;8.07;;;;;;;;;;5002975;28;20189;-77
2022/11/01 08:48:32;;;;;;;14.07;7.07;;;;;;;;;;5002870;28;20201;-77
2022/11/01 08:51:37;;;;;;;11.50;7.30;;;;;;;;;;4991485;28;20217;-77
2022/11/01 08:54:41;;;;;;;14.27;6.87;;;;;;;;;;5014910;28;20193;-77
2022/11/01 08:57:45;;;;;;;10.97;7.50;;;;;;;;;;5002944;28;20273;-77
2022/11/01 09:00:49;;;;;;;9.13;6.37;;;;;;;;;;5002828;28;20216;-77
2022/11/01 09:03:55;;;;;;;11.07;7.07;;;;;;;;;;5014564;28;20224;-77
2022/11/01 09:06:59;;;;;;;13.20;7.03;;;;;;;;;;4991665;28;20189;-77
2022/11/01 09:10:05;;;;;;;10.60;6.33;;;;;;;;;;4980857;28;20185;-77
2022/11/01 09:13:09;;;;;;;11.47;6.80;;;;;;;;;;5002714;28;20193;-78
2022/11/01 09:16:13;;;;;;;9.23;6.37;;;;;;;;;;4991292;28;20186;-78
2022/11/01 09:19:17;;;;;;;10.57;6.33;;;;;;;;;;5015227;28;20541;-77
2022/11/01 09:22:22;;;;;;;10.73;6.77;;;;;;;;;;5002686;28;20221;-77
2022/11/01 09:25:26;;;;;;;8.20;5.90;;;;;;;;;;5003267;28;20205;-78
2022/11/01 09:28:30;;;;;;;20.00;10.27;;;;;;;;;;5008757;28;20186;-80
2022/11/01 09:31:35;;;;;;;14.30;7.73;;;;;;;;;;4984747;28;20228;-78
2022/11/01 09:34:39;;;;;;;14.73;7.07;;;;;;;;;;4981687;28;20174;-78
2022/11/01 09:37:43;;;;;;;9.33;6.10;;;;;;;;;;4991388;28;20205;-77
2022/11/01 09:41:14;;;;;;;9.47;6.37;;;;;;;;;;5004051;28;20213;-78
2022/11/01 09:44:24;;;;;;;11.40;7.07;;;;;;;;;;5021602;28;20208;-77
2022/11/01 09:47:30;;;;;;;13.67;7.00;;;;;;;;;;5003533;28;20189;-79
2022/11/01 09:50:39;;;;;;;11.33;6.30;;;;;;;;;;4992029;28;20193;-78
2022/11/01 09:53:43;;;;;;;12.63;6.07;;;;;;;;;;5015053;28;20201;-78
2022/11/01 09:57:19;;;;;;;12.40;6.53;;;;;;;;;;5004841;28;20177;-79
2022/11/01 10:00:26;;;;;;;10.70;5.77;;;;;;;;;;4994250;28;20177;-80
2022/11/01 10:03:59;;;;;;;10.50;6.23;;;;;;;;;;5004127;28;20296;-78
2022/11/01 10:07:24;;;;;;;17.00;14.63;;;;;;;;;;4983654;28;20202;-80
2022/11/01 10:10:53;;;;;;;15.53;12.10;;;;;;;;;;4995588;28;20200;-78
2022/11/01 10:14:09;;;;;;;13.13;8.23;;;;;;;;;;5005410;28;20292;-80
2022/11/01 10:17:15;;;;;;;13.33;6.87;;;;;;;;;;5005783;28;20181;-77
2022/11/01 10:20:27;;;;;;;10.37;7.00;;;;;;;;;;5001230;28;20177;-77
2022/11/01 10:23:52;;;;;;;15.30;7.20;;;;;;;;;;5012849;28;20224;-77
2022/11/01 10:27:21;;;;;;;10.60;6.50;;;;;;;;;;5003442;28;20531;-79
2022/11/01 10:30:27;;;;;;;15.23;6.97;;;;;;;;;;4980086;28;20239;-76
2022/11/01 10:33:38;;;;;;;8.70;6.73;;;;;;;;;;5013546;28;20178;-78
2022/11/01 10:36:45;;;;;;;11.77;6.27;;;;;;;;;;5013905;28;20193;-76
2022/11/01 10:39:55;;;;;;;11.63;7.10;;;;;;;;;;5013498;28;20181;-77
2022/11/01 10:42:59;;;;;;;10.13;5.80;;;;;;;;;;5014455;28;20186;-78
2022/11/01 10:46:07;;;;;;;11.37;6.70;;;;;;;;;;4979641;28;20186;-78
2022/11/01 10:49:38;;;;;;;11.07;6.90;;;;;;;;;;5001521;28;20173;-77
2022/11/01 10:52:53;;;;;;;10.83;6.57;;;;;;;;;;4989897;28;20715;-77
2022/11/01 10:56:02;;;;;;;13.30;6.60;;;;;;;;;;4990092;28;20181;-77
2022/11/01 10:59:16;;;;;;;8.73;5.97;;;;;;;;;;5001280;28;20181;-77
2022/11/01 11:02:26;;;;;;;16.50;6.10;;;;;;;;;;4991011;28;20213;-77
2022/11/01 11:05:32;;;;;;;13.10;6.50;;;;;;;;;;5016247;28;20522;-78
2022/11/01 11:08:39;;;;;;;9.67;6.00;;;;;;;;;;5000870;28;20185;-77
2022/11/01 11:11:46;;;;;;;12.80;7.47;;;;;;;;;;5010623;28;20213;-78
2022/11/01 11:14:57;;;;;;;13.53;6.10;;;;;;;;;;5001620;28;20647;-78
2022/11/01 11:18:13;;;;;;;12.17;5.60;;;;;;;;;;5005454;28;20197;-78
2022/11/01 11:21:17;;;;;;;11.50;5.07;;;;;;;;;;4995195;28;20221;-78
2022/11/01 11:24:24;;;;;;;9.80;5.33;;;;;;;;;;4995504;28;20229;-79
2022/11/01 11:27:31;;;;;;;13.37;5.87;;;;;;;;;;5007036;28;20525;-79
2022/11/01 11:30:36;;;;;;;14.43;8.93;;;;;;;;;;5006368;28;20545;-78
2022/11/01 11:33:51;;;;;;;15.00;13.30;;;;;;;;;;5004954;28;20509;-78
2022/11/01 11:36:59;;;;;;;12.53;6.70;;;;;;;;;;5018869;28;20193;-77
2022/11/01 11:40:15;;;;;;;11.73;6.00;;;;;;;;;;4975188;28;20550;-78
2022/11/01 11:43:45;;;;;;;14.33;6.20;;;;;;;;;;4978906;28;20226;-78
2022/11/01 11:46:56;;;;;;;11.30;5.17;;;;;;;;;;4987583;28;20186;-78
2022/11/01 11:50:14;;;;;;;12.07;5.33;;;;;;;;;;4987216;28;20178;-78
2022/11/01 11:53:23;;;;;;;8.83;5.40;;;;;;;;;;4976261;28;20186;-78
2022/11/01 11:56:28;;;;;;;9.57;5.07;;;;;;;;;;4975656;28;20198;-78
2022/11/01 11:59:33;;;;;;;16.27;5.33;;;;;;;;;;5017103;23;20534;-80
2022/11/01 12:02:39;;;;;;;12.07;5.73;;;;;;;;;;4979991;28;20265;-80
2022/11/01 12:05:52;;;;;;;11.37;6.10;;;;;;;;;;4969116;28;20191;-79
2022/11/01 12:08:58;;;;;;;11.90;5.37;;;;;;;;;;4957652;28;20186;-79
2022/11/01 12:12:14;;;;;;;11.37;5.27;;;;;;;;;;4969159;28;20222;-81
2022/11/01 12:20:17;;;;;;;9.73;4.93;;;;;;;;;;5015295;28;20282;-82
2022/11/01 12:23:36;;;;;;;6.77;4.93;;;;;;;;;;4988927;28;20183;-82
2022/11/01 12:26:42;;;;;;;10.47;5.17;;;;;;;;;;5001396;28;20190;-82
2022/11/01 12:29:53;;;;;;;9.40;4.77;;;;;;;;;;5006075;28;20676;-78
2022/11/01 12:33:04;;;;;;;8.93;4.43;;;;;;;;;;4993743;28;20178;-79
2022/11/01 12:36:09;;;;;;;7.00;4.10;;;;;;;;;;5005419;28;20195;-81
2022/11/01 12:39:39;;;;;;;10.33;4.93;;;;;;;;;;4993769;28;20178;-81
2022/11/01 12:42:50;;;;;;;10.33;4.77;;;;;;;;;;4981594;28;20225;-81
2022/11/01 12:46:00;;;;;;;7.17;4.00;;;;;;;;;;4980107;28;20203;-81
2022/11/01 12:49:14;;;;;;;10.03;4.20;;;;;;;;;;4980356;28;20178;-81
2022/11/01 12:52:47;;;;;;;8.43;4.20;;;;;;;;;;4968375;28;20218;-81
2022/11/01 12:55:52;;;;;;;11.53;3.73;;;;;;;;;;4981568;28;20186;-81
2022/11/01 12:58:56;;;;;;;4.87;3.10;;;;;;;;;;4968992;28;20182;-80
2022/11/01 13:02:07;;;;;;;7.67;3.47;;;;;;;;;;4990170;28;20685;-80
2022/11/01 13:05:14;;;;;;;6.27;2.73;;;;;;;;;;4989896;28;20218;-80
2022/11/01 13:08:56;;;;;;;8.37;3.13;;;;;;;;;;4978133;28;20182;-80
2022/11/01 13:12:30;;;;;;;6.33;3.23;;;;;;;;;;5000431;28;20558;-80
2022/11/01 13:15:41;;;;;;;27.40;19.70;;;;;;;;;;4978611;28;20178;-80
2022/11/01 13:18:52;;;;;;;10.67;4.93;;;;;;;;;;4978761;28;20210;-81
2022/11/01 13:22:01;;;;;;;5.80;2.87;;;;;;;;;;4976954;28;20526;-80
2022/11/01 13:25:18;;;;;;;5.13;2.40;;;;;;;;;;4987928;28;20210;-79
2022/11/01 13:28:30;;;;;;;8.17;2.97;;;;;;;;;;4976887;28;20532;-80
2022/11/01 13:31:57;;;;;;;3.87;2.87;;;;;;;;;;4976044;28;20213;-81
2022/11/01 13:35:30;;;;;;;6.57;3.27;;;;;;;;;;4975511;28;20186;-79
2022/11/01 13:38:46;;;;;;;3.83;3.07;;;;;;;;;;4987345;28;20178;-79
2022/11/01 13:42:02;;;;;;;7.87;3.70;;;;;;;;;;4987348;28;20683;-79
2022/11/01 13:45:29;;;;;;;5.50;2.67;;;;;;;;;;4975637;28;20218;-79
2022/11/01 13:49:04;;;;;;;6.10;2.70;;;;;;;;;;4975452;28;20178;-79
2022/11/01 13:52:20;;;;;;;11.60;2.57;;;;;;;;;;4975452;28;20213;-79
2022/11/01 13:55:24;;;;;;;6.37;2.73;;;;;;;;;;4975606;28;20182;-78
2022/11/01 13:58:31;;;;;;;5.10;2.53;;;;;;;;;;4986525;28;20198;-78
2022/11/01 14:01:38;;;;;;;5.23;2.50;;;;;;;;;;4975175;28;20269;-79
2022/11/01 14:04:54;;;;;;;5.00;2.80;;;;;;;;;;4975293;28;20214;-79
2022/11/01 14:08:02;;;;;;;6.03;3.00;;;;;;;;;;4996914;28;20182;-79
2022/11/01 14:11:10;;;;;;;5.97;2.70;;;;;;;;;;4985654;28;20553;-78
2022/11/01 14:14:44;;;;;;;5.40;2.63;;;;;;;;;;4974449;28;20183;-79
2022/11/01 14:17:51;;;;;;;5.90;2.70;;;;;;;;;;5004930;28;20182;-78
2022/11/01 14:20:56;;;;;;;6.43;2.70;;;;;;;;;;4985215;28;20218;-79
2022/11/01 14:24:05;;;;;;;6.03;2.50;;;;;;;;;;4985283;28;20186;-78
2022/11/01 14:27:35;;;;;;;5.90;2.63;;;;;;;;;;4985500;28;20513;-79
2022/11/01 14:30:42;;;;;;;7.53;2.97;;;;;;;;;;4963021;28;20565;-79
2022/11/01 14:33:47;;;;;;;6.43;2.17;;;;;;;;;;4973554;28;20281;-80
2022/11/01 14:36:54;;;;;;;6.00;2.70;;;;;;;;;;4996432;28;20174;-80
2022/11/01 14:40:21;;;;;;;7.47;2.77;;;;;;;;;;4973682;28;20198;-80
2022/11/01 14:43:37;;;;;;;7.07;2.67;;;;;;;;;;4974635;28;20178;-80
2022/11/01 14:46:45;;;;;;;4.23;2.43;;;;;;;;;;4984827;28;20174;-78
2022/11/01 14:49:55;;;;;;;5.97;2.70;;;;;;;;;;4999984;28;20186;-78
2022/11/01 14:53:12;;;;;;;5.40;2.30;;;;;;;;;;4999568;28;20178;-78
2022/11/01 14:56:20;;;;;;;7.40;2.60;;;;;;;;;;5000227;28;20198;-78
2022/11/01 14:59:27;;;;;;;4.73;2.70;;;;;;;;;;4988482;28;20656;-78
2022/11/01 15:02:32;;;;;;;10.13;2.67;;;;;;;;;;4990153;28;20222;-78
2022/11/01 15:05:48;;;;;;;8.97;4.17;;;;;;;;;;4990390;28;20206;-78
2022/11/01 15:09:04;;;;;;;6.03;2.90;;;;;;;;;;5000647;28;20187;-78
2022/11/01 15:12:09;;;;;;;5.00;2.83;;;;;;;;;;4975124;28;20214;-78
2022/11/01 15:15:16;;;;;;;3.50;2.60;;;;;;;;;;4978457;28;20178;-78
2022/11/01 15:18:21;;;;;;;7.67;2.70;;;;;;;;;;5004644;28;20193;-79
2022/11/01 15:21:26;;;;;;;6.17;2.90;;;;;;;;;;5003415;28;20226;-78
2022/11/01 15:24:33;;;;;;;5.17;2.70;;;;;;;;;;4987777;28;20214;-78
2022/11/01 15:27:44;;;;;;;8.57;2.77;;;;;;;;;;4972053;28;20198;-78
2022/11/01 15:31:00;;;;;;;4.07;2.60;;;;;;;;;;4971240;28;20214;-77
2022/11/01 15:34:20;;;;;;;7.00;3.20;;;;;;;;;;4982581;28;20191;-78
2022/11/01 15:37:31;;;;;;;6.93;2.83;;;;;;;;;;4971134;28;20191;-78
2022/11/01 15:40:36;;;;;;;4.27;2.60;;;;;;;;;;4981975;28;20195;-79
2022/11/01 15:43:40;;;;;;;4.60;2.77;;;;;;;;;;4961308;28;20629;-77
2022/11/01 15:46:44;;;;;;;4.60;2.93;;;;;;;;;;4982249;28;20179;-78
2022/11/01 15:50:04;;;;;;;5.70;2.67;;;;;;;;;;4970226;28;20175;-78
2022/11/01 15:53:12;;;;;;;4.30;3.27;;;;;;;;;;4970582;28;20191;-80
2022/11/01 15:56:24;;;;;;;7.07;2.97;;;;;;;;;;4959398;28;20621;-78
2022/11/01 15:59:51;;;;;;;7.67;2.67;;;;;;;;;;4959191;28;20207;-78
2022/11/01 16:03:02;;;;;;;4.83;3.00;;;;;;;;;;4977589;28;20179;-79
2022/11/01 16:06:18;;;;;;;4.90;2.53;;;;;;;;;;4964094;28;20203;-79
2022/11/01 16:09:38;;;;;;;5.67;2.80;;;;;;;;;;4965448;28;20180;-78
2022/11/01 16:12:44;;;;;;;3.23;2.30;;;;;;;;;;4970892;28;20225;-78
2022/11/01 16:15:59;;;;;;;8.03;2.70;;;;;;;;;;4995304;28;20194;-79
2022/11/01 16:19:43;;;;;;;4.43;2.20;;;;;;;;;;4994190;28;20179;-80
2022/11/01 16:22:50;;;;;;;4.77;2.67;;;;;;;;;;4993176;28;20202;-78
2022/11/01 16:26:02;;;;;;;7.83;2.87;;;;;;;;;;4992694;28;20214;-79
2022/11/01 16:29:13;;;;;;;4.13;2.43;;;;;;;;;;4992453;28;20178;-79
2022/11/01 16:32:22;;;;;;;4.20;2.50;;;;;;;;;;5004648;28;20719;-79
2022/11/01 16:35:34;;;;;;;5.70;2.37;;;;;;;;;;4980813;28;20174;-79
2022/11/01 16:38:42;;;;;;;6.70;2.50;;;;;;;;;;4980999;28;20186;-80
2022/11/01 16:41:46;;;;;;;4.80;2.50;;;;;;;;;;4978868;28;20209;-81
2022/11/01 16:44:54;;;;;;;4.13;2.17;;;;;;;;;;4980292;28;20226;-79
2022/11/01 16:47:59;;;;;;;5.93;2.47;;;;;;;;;;4991909;28;20187;-79
2022/11/01 16:51:03;;;;;;;4.33;2.70;;;;;;;;;;4979677;28;20213;-80
2022/11/01 16:54:09;;;;;;;6.33;2.63;;;;;;;;;;4978713;28;20526;-80
2022/11/01 16:57:27;;;;;;;4.70;3.03;;;;;;;;;;4979905;28;20174;-80
2022/11/01 17:00:32;;;;;;;7.57;2.80;;;;;;;;;;4979397;28;20202;-79
2022/11/01 17:03:36;;;;;;;7.93;2.80;;;;;;;;;;4990884;28;20197;-78
2022/11/01 17:06:40;;;;;;;4.93;2.20;;;;;;;;;;4990227;28;20218;-80
2022/11/01 17:09:45;;;;;;;3.70;2.90;;;;;;;;;;4990317;28;20628;-79
2022/11/01 17:12:50;;;;;;;6.00;2.47;;;;;;;;;;4989378;28;20498;-79
2022/11/01 17:15:54;;;;;;;6.13;3.10;;;;;;;;;;4977972;28;20182;-80
2022/11/01 17:18:59;;;;;;;6.67;3.37;;;;;;;;;;4989358;28;20182;-79
2022/11/01 17:22:18;;;;;;;4.43;2.70;;;;;;;;;;4979387;28;20214;-81
2022/11/01 17:25:27;;;;;;;3.13;2.60;;;;;;;;;;4992881;28;20214;-79
2022/11/01 17:28:31;;;;;;;5.17;2.73;;;;;;;;;;4993389;28;20178;-79
2022/11/01 17:31:36;;;;;;;8.93;2.90;;;;;;;;;;4982338;28;20660;-79
2022/11/01 17:34:40;;;;;;;5.90;3.00;;;;;;;;;;4992400;28;20198;-79
2022/11/01 17:37:44;;;;;;;6.60;3.30;;;;;;;;;;4980416;28;20190;-78
2022/11/01 17:40:49;;;;;;;9.70;3.30;;;;;;;;;;4980393;28;20222;-80
2022/11/01 17:43:53;;;;;;;5.70;2.50;;;;;;;;;;4992339;28;20182;-79
2022/11/01 17:46:58;;;;;;;5.30;2.70;;;;;;;;;;4990430;28;20214;-80
2022/11/01 17:50:03;;;;;;;3.80;2.40;;;;;;;;;;4979942;28;20179;-79
2022/11/01 17:53:11;;;;;;;5.03;2.50;;;;;;;;;;4993039;28;20186;-80
2022/11/01 17:56:15;;;;;;;6.43;3.07;;;;;;;;;;4981273;28;20305;-81
2022/11/01 17:59:19;;;;;;;4.37;2.50;;;;;;;;;;4980821;28;20648;-80
2022/11/01 18:02:25;;;;;;;4.67;2.60;;;;;;;;;;4994826;28;20226;-81
2022/11/01 18:05:29;;;;;;;6.60;2.67;;;;;;;;;;5008026;28;20210;-81
2022/11/01 18:08:34;;;;;;;5.67;2.57;;;;;;;;;;4995456;28;20178;-81
2022/11/01 18:11:59;;;;;;;4.40;2.80;;;;;;;;;;4994830;28;20221;-81
2022/11/01 18:15:16;;;;;;;4.07;2.40;;;;;;;;;;4977279;28;20319;-80
2022/11/01 18:18:36;;;;;;;5.67;2.93;;;;;;;;;;5003400;28;20194;-80
2022/11/01 18:22:10;;;;;;;4.83;2.77;;;;;;;;;;5005094;28;20542;-80
2022/11/01 18:25:15;;;;;;;5.00;2.57;;;;;;;;;;5006750;28;20328;-82
2022/11/01 18:28:29;;;;;;;7.57;2.87;;;;;;;;;;5008475;28;20182;-82
2022/11/01 18:31:39;;;;;;;4.40;3.00;;;;;;;;;;4983919;28;20210;-81
2022/11/01 18:34:57;;;;;;;5.37;3.00;;;;;;;;;;4994942;28;20182;-81
2022/11/01 18:38:12;;;;;;;5.80;2.77;;;;;;;;;;4985408;28;20187;-82
2022/11/01 18:41:20;;;;;;;7.43;3.07;;;;;;;;;;5007655;28;20218;-80
2022/11/01 18:44:25;;;;;;;6.70;3.13;;;;;;;;;;5006145;28;20174;-83
2022/11/01 18:47:33;;;;;;;6.43;3.17;;;;;;;;;;4993059;28;20186;-82
2022/11/01 18:50:38;;;;;;;5.53;2.97;;;;;;;;;;4984544;28;20193;-81
2022/11/01 18:53:42;;;;;;;7.00;3.40;;;;;;;;;;4986402;28;20182;-81
2022/11/01 18:56:58;;;;;;;8.97;3.73;;;;;;;;;;5006245;28;20178;-78
2022/11/01 19:00:12;;;;;;;6.33;3.50;;;;;;;;;;4998324;28;20202;-77
2022/11/01 19:03:17;;;;;;;7.70;3.43;;;;;;;;;;4979807;28;20198;-77